International Virtual Aviation Organisation

Eastern Europe and Northern Asia MCD

 
UIAA 110400Z VRB02MPS 9999 NSC 01/M18 Q1023 R29/70D NOSIG RMK QFE708/0944
QNH:(hPa/inHg/mmHg)1023 / 30.21 / 767
QFE:(hPa/inHg/mmHg)939 / 27.72 / 704
Temperature1
Dew Point-18
Visibility> 10000
Weather
Cloud Cover
Transition Height1850 m./8400 ft.
Transition LevelFL90
SQUAWK